createdAt,value
2018-12-30T00:00:24.132Z,3.77
2018-12-30T00:02:52.578Z,2.83
2018-12-30T00:05:22.745Z,2.07
2018-12-30T00:07:51.250Z,4.93
2018-12-30T00:10:19.967Z,2.97
2018-12-30T00:12:48.670Z,3.87
2018-12-30T00:15:18.901Z,2.87
2018-12-30T00:17:47.514Z,2.53
2018-12-30T00:20:15.996Z,3.40
2018-12-30T00:22:44.444Z,3.23
2018-12-30T00:25:12.877Z,3.40
2018-12-30T00:27:41.339Z,4.27
2018-12-30T00:30:11.495Z,3.57
2018-12-30T00:32:39.981Z,2.57
2018-12-30T00:35:08.507Z,3.90
2018-12-30T00:37:36.947Z,2.30
2018-12-30T00:40:45.305Z,2.80
2018-12-30T00:43:13.804Z,2.73
2018-12-30T00:45:42.234Z,2.70
2018-12-30T00:48:10.669Z,3.53
2018-12-30T00:50:39.299Z,3.53
2018-12-30T00:53:07.731Z,4.13
2018-12-30T00:55:36.244Z,3.43
2018-12-30T00:58:04.706Z,3.63
2018-12-30T01:00:33.212Z,3.90
2018-12-30T01:03:01.669Z,4.00
2018-12-30T01:05:30.155Z,4.67
2018-12-30T01:07:58.775Z,5.47
2018-12-30T01:10:27.226Z,3.00
2018-12-30T01:12:55.778Z,4.80
2018-12-30T01:15:24.351Z,3.27
2018-12-30T01:17:54.620Z,3.07
2018-12-30T01:20:23.076Z,3.07
2018-12-30T01:22:51.471Z,3.10
2018-12-30T01:25:19.929Z,3.57
2018-12-30T01:27:48.346Z,3.77
2018-12-30T01:30:16.806Z,3.33
2018-12-30T01:32:47.007Z,3.83
2018-12-30T01:35:15.475Z,3.77
2018-12-30T01:37:43.930Z,4.47
2018-12-30T01:40:12.426Z,5.50
2018-12-30T01:42:40.881Z,7.53
2018-12-30T01:45:11.082Z,10.10
2018-12-30T01:47:39.568Z,8.63
2018-12-30T01:50:08.026Z,9.83
2018-12-30T01:53:16.406Z,7.83
2018-12-30T01:55:44.836Z,7.80
2018-12-30T01:58:14.333Z,8.93
2018-12-30T02:00:42.821Z,8.37
2018-12-30T02:03:11.366Z,8.63
2018-12-30T02:05:39.824Z,8.50
2018-12-30T02:08:08.464Z,11.77
2018-12-30T02:10:36.942Z,8.80
2018-12-30T02:13:05.526Z,9.37
2018-12-30T02:18:49.653Z,13.97
2018-12-30T02:21:30.131Z,9.70
2018-12-30T02:23:58.594Z,12.70
2018-12-30T02:29:37.046Z,9.67
2018-12-30T02:32:05.707Z,14.37
2018-12-30T02:34:34.149Z,12.47
2018-12-30T02:37:02.680Z,12.17
2018-12-30T02:39:31.111Z,10.30
2018-12-30T02:41:59.542Z,12.93
2018-12-30T02:44:27.952Z,14.13
2018-12-30T02:46:56.417Z,12.37
2018-12-30T02:49:24.856Z,14.23
2018-12-30T02:51:53.597Z,13.07
2018-12-30T02:54:41.588Z,13.47
2018-12-30T02:57:10.207Z,10.93
2018-12-30T02:59:58.000Z,14.50
2018-12-30T03:02:26.469Z,13.67
2018-12-30T03:04:54.897Z,14.13
2018-12-30T03:07:23.320Z,11.50
2018-12-30T03:09:51.955Z,22.57
2018-12-30T03:12:20.385Z,19.17
2018-12-30T03:14:48.827Z,18.63
2018-12-30T03:17:17.271Z,13.17
2018-12-30T03:19:45.725Z,16.53
2018-12-30T03:22:15.444Z,22.27
2018-12-30T03:24:43.895Z,19.87
2018-12-30T03:27:12.310Z,21.33
2018-12-30T03:29:40.855Z,16.80
2018-12-30T03:32:09.448Z,18.23
2018-12-30T03:34:37.853Z,24.77
2018-12-30T03:37:06.318Z,21.33
2018-12-30T03:39:34.884Z,18.50
2018-12-30T03:42:03.550Z,18.80
2018-12-30T03:44:31.993Z,16.90
2018-12-30T03:47:00.506Z,15.87
2018-12-30T03:49:29.049Z,22.27
2018-12-30T03:51:57.616Z,17.97
2018-12-30T03:54:26.091Z,21.20
2018-12-30T03:56:54.649Z,19.37
2018-12-30T03:59:23.177Z,19.07
2018-12-30T04:01:51.674Z,19.90
2018-12-30T04:04:20.297Z,19.53
2018-12-30T04:06:48.740Z,17.83
2018-12-30T04:09:17.195Z,16.10
2018-12-30T04:11:45.742Z,16.13
2018-12-30T04:14:14.199Z,20.30
2018-12-30T04:16:42.637Z,20.50
2018-12-30T04:19:11.135Z,16.20
2018-12-30T04:21:39.571Z,24.43
2018-12-30T04:24:08.126Z,17.70
2018-12-30T04:26:36.606Z,16.10
2018-12-30T04:29:05.044Z,20.27
2018-12-30T04:31:33.697Z,20.07
2018-12-30T04:34:02.111Z,19.07
2018-12-30T04:36:30.620Z,18.40
2018-12-30T04:39:00.744Z,15.37
2018-12-30T04:41:29.368Z,15.97
2018-12-30T04:43:57.823Z,19.80
2018-12-30T04:46:26.306Z,16.00
2018-12-30T04:48:54.734Z,19.40
2018-12-30T04:51:23.273Z,19.37
2018-12-30T04:53:51.729Z,17.90
2018-12-30T04:56:20.180Z,19.73
2018-12-30T04:58:48.680Z,18.10
2018-12-30T05:01:17.114Z,19.93
2018-12-30T05:03:45.579Z,18.67
2018-12-30T05:06:14.007Z,17.83
2018-12-30T05:08:42.462Z,19.97
2018-12-30T05:11:10.888Z,16.93
2018-12-30T05:13:39.375Z,16.63
2018-12-30T05:16:07.913Z,18.67
2018-12-30T05:18:36.602Z,20.77
2018-12-30T05:21:05.315Z,20.60
2018-12-30T05:23:33.814Z,17.73
2018-12-30T05:26:02.250Z,17.00
2018-12-30T05:28:30.716Z,19.03
2018-12-30T05:30:59.188Z,16.90
2018-12-30T05:33:27.726Z,15.63
2018-12-30T05:35:56.218Z,13.13
2018-12-30T05:38:24.643Z,15.20
2018-12-30T05:40:53.162Z,17.57
2018-12-30T05:43:21.617Z,17.20
2018-12-30T05:45:50.102Z,18.43
2018-12-30T05:48:18.573Z,18.37
2018-12-30T05:50:47.006Z,17.57
2018-12-30T05:53:15.435Z,20.20
2018-12-30T05:55:43.917Z,15.53
2018-12-30T05:58:12.437Z,14.87
2018-12-30T06:00:40.921Z,22.80
2018-12-30T06:03:09.392Z,11.03
2018-12-30T06:05:37.839Z,13.57
2018-12-30T06:08:06.448Z,11.87
2018-12-30T06:10:34.928Z,16.80
2018-12-30T06:13:03.366Z,16.60
2018-12-30T06:15:31.811Z,15.73
2018-12-30T06:18:00.267Z,16.97
2018-12-30T06:20:28.703Z,15.40
2018-12-30T06:22:57.150Z,12.50
2018-12-30T06:25:25.632Z,12.80
2018-12-30T06:27:54.116Z,14.57
2018-12-30T06:30:22.653Z,17.23
2018-12-30T06:32:51.081Z,11.10
2018-12-30T06:35:19.553Z,13.00
2018-12-30T06:37:48.176Z,13.37
2018-12-30T06:40:16.709Z,18.93
2018-12-30T06:42:45.243Z,11.80
2018-12-30T06:45:13.765Z,15.97
2018-12-30T06:47:42.199Z,15.90
2018-12-30T06:50:11.298Z,14.60
2018-12-30T06:52:39.801Z,13.90
2018-12-30T06:55:08.309Z,14.73
2018-12-30T06:57:36.757Z,19.03
2018-12-30T07:00:06.491Z,16.50
2018-12-30T07:02:34.869Z,15.27
2018-12-30T07:05:03.340Z,14.30
2018-12-30T07:07:31.799Z,15.03
2018-12-30T07:10:00.242Z,12.73
2018-12-30T07:12:28.702Z,13.40
2018-12-30T07:14:57.136Z,16.00
2018-12-30T07:17:25.701Z,16.27
2018-12-30T07:19:54.304Z,12.57
2018-12-30T07:22:22.845Z,16.00
2018-12-30T07:24:51.330Z,15.17
2018-12-30T07:27:19.748Z,10.13
2018-12-30T07:29:48.193Z,16.00
2018-12-30T07:32:16.651Z,15.63
2018-12-30T07:34:45.167Z,17.80
2018-12-30T07:37:13.597Z,12.83
2018-12-30T07:39:42.098Z,11.23
2018-12-30T07:42:10.536Z,16.90
2018-12-30T07:44:38.953Z,15.13
2018-12-30T07:47:07.418Z,12.57
2018-12-30T07:49:35.843Z,12.47
2018-12-30T07:52:04.324Z,13.20
2018-12-30T07:54:32.730Z,14.73
2018-12-30T07:57:01.193Z,9.93
2018-12-30T07:59:29.702Z,13.77
2018-12-30T08:01:58.184Z,12.27
2018-12-30T08:04:26.625Z,10.53
2018-12-30T08:06:55.112Z,14.67
2018-12-30T08:09:24.195Z,10.80
2018-12-30T08:11:52.581Z,7.83
2018-12-30T08:14:21.218Z,14.27
2018-12-30T08:16:49.656Z,10.37
2018-12-30T08:19:18.110Z,11.33
2018-12-30T08:21:46.587Z,10.97
2018-12-30T08:24:15.051Z,13.97
2018-12-30T08:26:43.648Z,11.50
2018-12-30T08:29:12.196Z,6.80
2018-12-30T08:31:40.739Z,10.83
2018-12-30T08:34:09.205Z,10.13
2018-12-30T08:36:37.795Z,11.23
2018-12-30T08:39:07.455Z,8.67
2018-12-30T08:41:35.907Z,5.83
2018-12-30T08:44:04.381Z,7.50
2018-12-30T08:46:32.790Z,9.13
2018-12-30T08:49:01.352Z,12.57
2018-12-30T08:51:29.821Z,6.17
2018-12-30T08:53:58.290Z,6.30
2018-12-30T08:56:26.710Z,6.23
2018-12-30T08:58:55.249Z,9.13
2018-12-30T09:01:28.259Z,9.67
2018-12-30T09:03:53.951Z,10.37
2018-12-30T09:06:22.418Z,11.73
2018-12-30T09:08:50.866Z,7.03
2018-12-30T09:11:19.409Z,5.40
2018-12-30T09:13:47.954Z,10.97
2018-12-30T09:16:17.529Z,6.53
2018-12-30T09:18:46.188Z,6.33
2018-12-30T09:21:14.606Z,7.23
2018-12-30T09:23:45.199Z,10.13
2018-12-30T09:26:13.719Z,8.10
2018-12-30T09:28:42.263Z,5.07
2018-12-30T09:31:10.944Z,6.67
2018-12-30T09:33:39.542Z,4.80
2018-12-30T09:36:08.042Z,6.20
2018-12-30T09:38:36.492Z,5.83
2018-12-30T09:41:04.984Z,6.83
2018-12-30T09:48:51.264Z,5.13
2018-12-30T09:51:19.709Z,5.93
2018-12-30T09:53:48.149Z,4.60
2018-12-30T09:56:16.598Z,6.67
2018-12-30T09:58:45.037Z,7.27
2018-12-30T10:01:13.543Z,8.53
2018-12-30T10:03:42.021Z,7.37
2018-12-30T10:06:10.458Z,7.47
2018-12-30T10:08:39.163Z,7.27
2018-12-30T10:11:07.650Z,5.73
2018-12-30T10:13:36.383Z,8.87
2018-12-30T10:16:04.895Z,7.43
2018-12-30T10:18:33.409Z,7.67
2018-12-30T10:21:01.900Z,7.10
2018-12-30T10:23:30.465Z,11.07
2018-12-30T10:25:58.952Z,8.57
2018-12-30T10:28:27.465Z,6.50
2018-12-30T10:30:55.930Z,4.87
2018-12-30T10:33:24.572Z,7.80
2018-12-30T10:35:53.038Z,6.80
2018-12-30T10:38:21.480Z,5.73
2018-12-30T10:40:49.997Z,8.13
2018-12-30T10:43:18.484Z,8.17
2018-12-30T10:45:47.077Z,9.53
2018-12-30T10:48:15.597Z,7.87
2018-12-30T10:50:44.242Z,9.47
2018-12-30T10:53:12.729Z,8.17
2018-12-30T10:55:41.264Z,8.00
2018-12-30T10:58:15.126Z,8.73
2018-12-30T11:00:47.297Z,4.20
2018-12-30T11:03:15.750Z,7.87
2018-12-30T11:05:44.206Z,7.03
2018-12-30T11:08:12.733Z,11.90
2018-12-30T11:10:41.317Z,8.67
2018-12-30T11:13:09.826Z,10.73
2018-12-30T11:15:39.519Z,7.10
2018-12-30T11:18:16.337Z,7.97
2018-12-30T11:20:44.940Z,10.33
2018-12-30T11:23:13.485Z,10.83
2018-12-30T11:25:42.616Z,7.70
2018-12-30T11:28:11.164Z,9.50
2018-12-30T11:30:39.716Z,9.77
2018-12-30T11:33:08.260Z,10.77
2018-12-30T11:35:36.766Z,10.60
2018-12-30T11:38:05.283Z,5.50
2018-12-30T11:40:33.725Z,9.07
2018-12-30T11:43:02.313Z,5.67
2018-12-30T11:45:30.977Z,8.33
2018-12-30T11:47:59.832Z,8.57
2018-12-30T11:50:28.354Z,12.70
2018-12-30T11:52:57.003Z,5.40
2018-12-30T11:55:25.484Z,8.07
2018-12-30T11:57:53.986Z,6.00
2018-12-30T12:00:22.460Z,7.53
2018-12-30T12:02:50.894Z,9.70
2018-12-30T12:05:19.626Z,6.10
2018-12-30T12:07:48.350Z,8.67
2018-12-30T12:10:16.807Z,7.50
2018-12-30T12:12:49.132Z,7.30
2018-12-30T12:15:15.623Z,6.90
2018-12-30T12:17:44.095Z,10.13
2018-12-30T12:20:12.625Z,10.03
2018-12-30T12:22:41.112Z,11.17
2018-12-30T12:25:09.628Z,11.50
2018-12-30T12:27:39.294Z,11.07
2018-12-30T12:30:08.645Z,7.03
2018-12-30T12:32:37.081Z,11.13
2018-12-30T12:35:06.018Z,11.87
2018-12-30T12:37:34.513Z,9.00
2018-12-30T12:40:02.918Z,7.10
2018-12-30T12:42:31.499Z,9.97
2018-12-30T12:45:00.096Z,9.43
2018-12-30T12:47:28.850Z,10.30
2018-12-30T12:49:57.383Z,9.53
2018-12-30T12:52:26.579Z,9.63
2018-12-30T12:54:55.149Z,12.17
2018-12-30T12:57:23.604Z,7.27
2018-12-30T12:59:52.118Z,7.97
2018-12-30T13:02:20.655Z,8.63
2018-12-30T13:04:49.142Z,12.23
2018-12-30T13:07:17.740Z,9.97
2018-12-30T13:09:46.333Z,9.67
2018-12-30T13:12:14.835Z,9.10
2018-12-30T13:14:43.289Z,9.13
2018-12-30T13:17:11.737Z,7.50
2018-12-30T13:19:40.260Z,8.43
2018-12-30T13:22:08.755Z,8.60
2018-12-30T13:24:40.150Z,10.07
2018-12-30T13:27:07.483Z,10.53
2018-12-30T13:29:35.966Z,9.33
2018-12-30T13:32:04.549Z,9.83
2018-12-30T13:34:33.080Z,9.43
2018-12-30T13:37:01.590Z,9.57
2018-12-30T13:39:30.043Z,10.30
2018-12-30T13:41:58.553Z,6.57
2018-12-30T13:44:27.061Z,12.97
2018-12-30T13:46:57.180Z,10.37
2018-12-30T13:49:26.988Z,8.83
2018-12-30T13:51:55.438Z,6.97
2018-12-30T13:54:23.974Z,6.93
2018-12-30T13:56:52.409Z,8.30
2018-12-30T13:59:23.427Z,8.60
2018-12-30T14:01:51.901Z,11.00
2018-12-30T14:04:20.424Z,5.60
2018-12-30T14:06:48.935Z,8.77
2018-12-30T14:09:17.433Z,11.87
2018-12-30T14:11:46.250Z,8.90
2018-12-30T14:14:14.850Z,8.10
2018-12-30T14:16:43.696Z,6.53
2018-12-30T14:19:12.304Z,7.40
2018-12-30T14:21:40.867Z,10.50
2018-12-30T14:24:09.418Z,8.83
2018-12-30T14:26:37.874Z,11.07
2018-12-30T14:29:06.323Z,6.57
2018-12-30T14:31:34.878Z,11.13
2018-12-30T14:34:03.490Z,10.13
2018-12-30T14:36:31.964Z,7.90
2018-12-30T14:39:00.428Z,11.93
2018-12-30T14:41:28.932Z,7.40
2018-12-30T14:43:57.406Z,6.80
2018-12-30T14:46:33.627Z,10.20
2018-12-30T14:48:56.333Z,8.27
2018-12-30T14:51:25.018Z,9.30
2018-12-30T14:53:53.687Z,9.90
2018-12-30T14:56:22.130Z,9.83
2018-12-30T14:58:50.761Z,10.70
2018-12-30T15:01:19.236Z,6.57
2018-12-30T15:03:47.900Z,8.10
2018-12-30T15:06:16.496Z,9.60
2018-12-30T15:08:46.082Z,7.07
2018-12-30T15:11:15.371Z,9.53
2018-12-30T15:13:44.679Z,8.43
2018-12-30T15:16:13.112Z,9.50
2018-12-30T15:18:41.671Z,9.50
2018-12-30T15:21:10.192Z,11.30
2018-12-30T15:23:38.638Z,6.67
2018-12-30T15:26:07.182Z,6.60
2018-12-30T15:28:35.557Z,10.13
2018-12-30T15:31:04.058Z,9.07
2018-12-30T15:33:32.587Z,6.23
2018-12-30T15:36:01.051Z,10.13
2018-12-30T15:38:29.519Z,6.63
2018-12-30T15:40:58.022Z,5.70
2018-12-30T15:43:26.564Z,9.17
2018-12-30T15:45:55.053Z,6.40
2018-12-30T15:48:23.566Z,5.93
2018-12-30T15:50:52.032Z,5.97
2018-12-30T15:53:20.499Z,9.97
2018-12-30T15:55:49.002Z,7.47
2018-12-30T15:58:17.474Z,7.87
2018-12-30T16:00:45.924Z,7.40
2018-12-30T16:03:14.434Z,6.67
2018-12-30T16:05:42.860Z,6.07
2018-12-30T16:08:11.479Z,5.90
2018-12-30T16:10:40.052Z,5.53
2018-12-30T16:13:08.558Z,8.50
2018-12-30T16:15:36.988Z,6.93
2018-12-30T16:18:05.463Z,4.97
2018-12-30T16:20:33.992Z,6.00
2018-12-30T16:23:02.535Z,10.23
2018-12-30T16:25:31.032Z,8.37
2018-12-30T16:27:59.894Z,9.27
2018-12-30T16:30:28.408Z,6.20
2018-12-30T16:32:58.432Z,6.40
2018-12-30T16:35:26.938Z,6.83
2018-12-30T16:37:55.461Z,6.27
2018-12-30T16:40:23.893Z,8.60
2018-12-30T16:42:52.473Z,10.13
2018-12-30T16:45:20.916Z,6.53
2018-12-30T16:47:49.402Z,7.00
2018-12-30T16:50:17.928Z,8.03
2018-12-30T16:52:46.398Z,8.17
2018-12-30T16:55:14.938Z,6.53
2018-12-30T16:57:43.408Z,11.70
2018-12-30T17:00:12.030Z,7.37
2018-12-30T17:02:40.589Z,9.57
2018-12-30T17:05:09.395Z,8.30
2018-12-30T17:07:38.222Z,9.13
2018-12-30T17:10:08.717Z,5.37
2018-12-30T17:12:37.237Z,5.73
2018-12-30T17:15:08.152Z,8.50
2018-12-30T17:17:36.862Z,9.10
2018-12-30T17:20:06.673Z,5.40
2018-12-30T17:22:35.187Z,7.40
2018-12-30T17:25:03.882Z,7.37
2018-12-30T17:27:33.872Z,6.37
2018-12-30T17:30:02.368Z,6.27
2018-12-30T17:32:30.918Z,9.07
2018-12-30T17:34:59.318Z,6.93
2018-12-30T17:37:27.751Z,7.27
2018-12-30T17:39:56.233Z,6.93
2018-12-30T17:42:24.724Z,6.10
2018-12-30T17:44:53.266Z,7.40
2018-12-30T17:47:21.863Z,6.13
2018-12-30T17:49:50.499Z,10.90
2018-12-30T17:52:18.941Z,7.53
2018-12-30T17:54:47.476Z,12.63
2018-12-30T17:57:15.946Z,9.93
2018-12-30T17:59:44.732Z,8.00
2018-12-30T18:02:13.925Z,8.57
2018-12-30T18:04:42.483Z,7.27
2018-12-30T18:07:10.961Z,9.03
2018-12-30T18:09:39.367Z,6.23
2018-12-30T18:12:07.885Z,7.83
2018-12-30T18:14:36.349Z,7.37
2018-12-30T18:17:04.951Z,5.57
2018-12-30T18:19:33.399Z,9.30
2018-12-30T18:22:01.866Z,10.90
2018-12-30T18:24:30.308Z,8.37
2018-12-30T18:26:58.813Z,8.80
2018-12-30T18:29:27.221Z,8.20
2018-12-30T18:31:55.686Z,7.13
2018-12-30T18:34:24.293Z,8.57
2018-12-30T18:36:52.751Z,8.20
2018-12-30T18:39:21.338Z,7.13
2018-12-30T18:41:49.819Z,9.53
2018-12-30T18:44:18.404Z,5.70
2018-12-30T18:46:46.861Z,10.63
2018-12-30T18:49:15.321Z,8.00
2018-12-30T18:51:43.972Z,7.10
2018-12-30T18:54:12.501Z,9.17
2018-12-30T18:56:41.134Z,8.43
2018-12-30T18:59:09.596Z,9.30
2018-12-30T19:01:38.201Z,10.03
2018-12-30T19:04:06.694Z,8.07
2018-12-30T19:06:35.443Z,9.20
2018-12-30T19:09:05.841Z,8.13
2018-12-30T19:11:34.367Z,7.30
2018-12-30T19:14:02.828Z,7.23
2018-12-30T19:16:33.907Z,8.03
2018-12-30T19:19:02.356Z,10.73
2018-12-30T19:21:30.961Z,9.70
2018-12-30T19:24:00.709Z,8.87
2018-12-30T19:26:29.197Z,6.93
2018-12-30T19:28:57.746Z,8.47
2018-12-30T19:31:26.236Z,10.20
2018-12-30T19:33:54.710Z,8.57
2018-12-30T19:36:23.732Z,7.60
2018-12-30T19:38:52.773Z,9.20
2018-12-30T19:41:21.269Z,8.80
2018-12-30T19:43:51.897Z,10.80
2018-12-30T19:46:25.928Z,11.73
2018-12-30T19:48:54.425Z,8.23
2018-12-30T19:51:22.944Z,12.90
2018-12-30T19:53:51.521Z,6.73
2018-12-30T19:56:22.015Z,10.20
2018-12-30T19:58:50.408Z,10.57
2018-12-30T20:01:18.862Z,10.47
2018-12-30T20:03:47.289Z,9.73
2018-12-30T20:06:15.878Z,9.23
2018-12-30T20:08:44.404Z,11.30
2018-12-30T20:11:12.947Z,8.80
2018-12-30T20:13:44.043Z,7.17
2018-12-30T20:16:12.581Z,10.40
2018-12-30T20:18:41.253Z,10.63
2018-12-30T20:21:09.914Z,11.13
2018-12-30T20:23:38.490Z,9.77
2018-12-30T20:26:07.108Z,9.27
2018-12-30T20:28:35.712Z,10.27
2018-12-30T20:31:04.311Z,9.70
2018-12-30T20:33:32.851Z,12.87
2018-12-30T20:36:01.306Z,7.93
2018-12-30T20:38:29.803Z,6.00
2018-12-30T20:40:58.293Z,11.43
2018-12-30T20:43:26.682Z,10.03
2018-12-30T20:45:55.146Z,11.47
2018-12-30T20:48:25.357Z,7.70
2018-12-30T20:50:53.960Z,6.97
2018-12-30T20:53:22.405Z,6.80
2018-12-30T20:55:51.152Z,8.33
2018-12-30T20:58:19.703Z,10.67
2018-12-30T21:00:48.183Z,9.83
2018-12-30T21:03:16.715Z,12.07
2018-12-30T21:05:45.247Z,10.30
2018-12-30T21:08:14.200Z,10.30
2018-12-30T21:10:42.810Z,8.03
2018-12-30T21:13:11.577Z,8.80
2018-12-30T21:15:40.141Z,10.23
2018-12-30T21:18:10.727Z,10.57
2018-12-30T21:20:39.252Z,11.13
2018-12-30T21:23:07.774Z,10.93
2018-12-30T21:25:36.270Z,11.90
2018-12-30T21:28:04.771Z,10.87
2018-12-30T21:30:33.503Z,12.67
2018-12-30T21:33:01.946Z,10.47
2018-12-30T21:35:30.473Z,10.70
2018-12-30T21:37:58.883Z,8.03
2018-12-30T21:40:27.464Z,11.07
2018-12-30T21:42:56.047Z,11.30
2018-12-30T21:45:24.637Z,10.40
2018-12-30T21:47:53.218Z,12.20
2018-12-30T21:50:21.804Z,12.40
2018-12-30T21:52:51.611Z,12.50
2018-12-30T21:55:20.176Z,10.73
2018-12-30T21:57:48.734Z,11.00
2018-12-30T22:00:17.266Z,10.97
2018-12-30T22:02:45.822Z,11.37
2018-12-30T22:05:14.304Z,9.77
2018-12-30T22:07:42.861Z,12.53
2018-12-30T22:10:17.183Z,10.00
2018-12-30T22:12:41.682Z,10.27
2018-12-30T22:15:10.369Z,13.33
2018-12-30T22:17:39.266Z,11.30
2018-12-30T22:20:07.896Z,16.43
2018-12-30T22:22:36.467Z,10.77
2018-12-30T22:25:05.429Z,14.40
2018-12-30T22:27:33.910Z,12.83
2018-12-30T22:30:02.416Z,12.50
2018-12-30T22:32:30.906Z,11.57
2018-12-30T22:34:59.527Z,14.50
2018-12-30T22:37:28.037Z,14.33
2018-12-30T22:39:56.529Z,14.53
2018-12-30T22:42:32.547Z,13.17
2018-12-30T22:44:55.205Z,15.03
2018-12-30T22:47:23.849Z,15.83
2018-12-30T22:49:52.363Z,11.87
2018-12-30T22:52:20.770Z,14.90
2018-12-30T22:54:49.298Z,14.87
2018-12-30T22:57:17.733Z,9.60
2018-12-30T22:59:47.828Z,13.03
2018-12-30T23:02:16.434Z,13.17
2018-12-30T23:04:44.932Z,12.10
2018-12-30T23:07:13.455Z,11.83
2018-12-30T23:09:41.859Z,13.47
2018-12-30T23:12:10.399Z,12.00
2018-12-30T23:14:39.125Z,14.40
2018-12-30T23:17:07.584Z,11.70
2018-12-30T23:19:36.235Z,13.20
2018-12-30T23:22:04.848Z,11.73
2018-12-30T23:24:33.398Z,11.93
2018-12-30T23:27:01.984Z,13.80
2018-12-30T23:29:30.675Z,12.90
2018-12-30T23:31:59.277Z,12.90
2018-12-30T23:34:27.758Z,11.83
2018-12-30T23:36:56.485Z,13.30
2018-12-30T23:39:25.004Z,12.03
2018-12-30T23:41:53.491Z,14.00
2018-12-30T23:44:22.066Z,13.43
2018-12-30T23:46:50.498Z,13.47
2018-12-30T23:49:18.980Z,12.23
2018-12-30T23:51:47.436Z,15.17
2018-12-30T23:54:15.888Z,15.23
2018-12-30T23:56:44.753Z,16.53
2018-12-30T23:59:13.213Z,16.20
